Time;durP1;ratioP1;P1;durP2;ratioP2;P2;SDS_P1;SDS_P2;PMS_P1;PMS_P2;Temp;Humidity;BMP_temperature;BMP_pressure;BME280_temperature;BME280_humidity;BME280_pressure;Samples;Min_cycle;Max_cycle;Signal;HPM_P1;HPM_P2
2022/03/17 00:01:32;;;;;;;27.25;18.65;;;;;;;;;;4988972;28;20063;-79
2022/03/17 00:03:58;;;;;;;29.77;19.05;;;;;;;;;;5006377;28;20117;-78
2022/03/17 00:06:24;;;;;;;26.33;17.98;;;;;;;;;;5007756;28;20037;-78
2022/03/17 00:08:49;;;;;;;28.00;19.38;;;;;;;;;;5002460;28;20022;-79
2022/03/17 00:11:15;;;;;;;30.13;20.15;;;;;;;;;;5012011;28;20238;-80
2022/03/17 00:13:41;;;;;;;27.42;19.20;;;;;;;;;;5012826;28;20018;-79
2022/03/17 00:16:09;;;;;;;29.38;18.85;;;;;;;;;;5008915;28;20029;-81
2022/03/17 00:18:35;;;;;;;30.30;19.95;;;;;;;;;;5019233;28;20022;-81
2022/03/17 00:21:00;;;;;;;26.38;18.38;;;;;;;;;;5019377;28;20042;-81
2022/03/17 00:23:25;;;;;;;29.63;19.95;;;;;;;;;;5003129;28;20029;-81
2022/03/17 00:25:51;;;;;;;29.73;19.73;;;;;;;;;;5021297;28;20389;-79
2022/03/17 00:28:16;;;;;;;29.50;18.77;;;;;;;;;;5025731;28;20036;-80
2022/03/17 00:30:42;;;;;;;33.20;19.63;;;;;;;;;;5030981;28;20022;-79
2022/03/17 00:33:07;;;;;;;30.80;20.08;;;;;;;;;;5026533;28;20026;-80
2022/03/17 00:35:35;;;;;;;29.58;20.20;;;;;;;;;;5005021;28;20033;-79
2022/03/17 00:38:07;;;;;;;30.60;19.38;;;;;;;;;;4992098;28;20020;-80
2022/03/17 00:40:37;;;;;;;29.85;19.83;;;;;;;;;;4994663;28;20082;-81
2022/03/17 00:43:04;;;;;;;32.88;20.63;;;;;;;;;;5005703;28;20060;-79
2022/03/17 00:45:30;;;;;;;30.60;19.45;;;;;;;;;;5004329;28;20049;-79
2022/03/17 00:47:56;;;;;;;31.33;20.98;;;;;;;;;;5008866;28;20056;-79
2022/03/17 00:50:22;;;;;;;32.88;19.65;;;;;;;;;;5004996;28;20017;-79
2022/03/17 00:52:48;;;;;;;30.42;20.30;;;;;;;;;;5007516;28;20072;-80
2022/03/17 00:55:14;;;;;;;31.25;19.63;;;;;;;;;;5004639;28;20057;-79
2022/03/17 00:57:40;;;;;;;30.25;20.52;;;;;;;;;;4975253;28;20022;-80
2022/03/17 01:00:08;;;;;;;33.70;21.20;;;;;;;;;;5007156;28;20547;-79
2022/03/17 01:02:34;;;;;;;34.88;20.85;;;;;;;;;;5000685;28;20172;-78
2022/03/17 01:04:59;;;;;;;33.38;22.00;;;;;;;;;;4991918;28;20022;-79
2022/03/17 01:07:25;;;;;;;33.60;20.95;;;;;;;;;;4992501;28;20752;-80
2022/03/17 01:09:50;;;;;;;32.33;20.13;;;;;;;;;;5002479;28;20022;-80
2022/03/17 01:12:15;;;;;;;32.28;20.27;;;;;;;;;;5002234;28;20025;-79
2022/03/17 01:14:41;;;;;;;31.55;20.45;;;;;;;;;;5008528;28;20060;-79
2022/03/17 01:17:09;;;;;;;33.33;20.67;;;;;;;;;;4988395;23;20050;-80
2022/03/17 01:19:34;;;;;;;31.20;20.17;;;;;;;;;;4981422;28;20408;-81
2022/03/17 01:22:00;;;;;;;34.30;21.17;;;;;;;;;;4970470;28;20304;-81
2022/03/17 01:24:25;;;;;;;34.40;22.52;;;;;;;;;;4977961;28;20030;-81
2022/03/17 01:26:51;;;;;;;36.70;20.95;;;;;;;;;;4975039;28;20034;-80
2022/03/17 01:29:16;;;;;;;33.45;21.30;;;;;;;;;;4980013;28;20019;-81
2022/03/17 01:31:42;;;;;;;29.20;19.95;;;;;;;;;;4979335;28;20039;-81
2022/03/17 01:34:07;;;;;;;33.00;21.13;;;;;;;;;;4975292;28;20054;-81
2022/03/17 01:36:32;;;;;;;31.52;20.50;;;;;;;;;;4986373;28;20033;-81
2022/03/17 01:38:58;;;;;;;33.80;21.08;;;;;;;;;;4982541;28;20097;-80
2022/03/17 01:41:23;;;;;;;33.92;21.23;;;;;;;;;;4969502;28;20037;-81
2022/03/17 01:43:49;;;;;;;33.72;22.10;;;;;;;;;;4977443;28;20037;-80
2022/03/17 01:46:15;;;;;;;36.63;22.63;;;;;;;;;;4978186;28;20086;-82
2022/03/17 01:48:42;;;;;;;36.53;21.65;;;;;;;;;;4982995;28;20018;-80
2022/03/17 01:51:07;;;;;;;31.70;20.25;;;;;;;;;;4981538;28;20477;-79
2022/03/17 01:53:33;;;;;;;34.50;21.35;;;;;;;;;;4990690;28;20613;-80
2022/03/17 01:56:00;;;;;;;35.00;21.92;;;;;;;;;;4986719;28;20018;-78
2022/03/17 01:58:26;;;;;;;32.47;20.95;;;;;;;;;;4984006;28;20029;-79
2022/03/17 02:00:52;;;;;;;34.78;22.63;;;;;;;;;;5004791;28;20125;-79
2022/03/17 02:03:18;;;;;;;34.28;22.55;;;;;;;;;;5006134;28;20030;-78
2022/03/17 02:05:43;;;;;;;31.25;20.65;;;;;;;;;;4998102;28;20082;-79
2022/03/17 02:08:10;;;;;;;34.47;21.20;;;;;;;;;;5005041;28;20054;-80
2022/03/17 02:13:20;;;;;;;39.05;22.17;;;;;;;;;;4997296;28;20452;-79
2022/03/17 02:15:54;;;;;;;36.42;22.92;;;;;;;;;;4997247;28;20468;-79
2022/03/17 02:18:20;;;;;;;36.83;22.23;;;;;;;;;;4999880;28;20041;-80
2022/03/17 02:20:46;;;;;;;37.72;22.45;;;;;;;;;;5009510;28;20066;-80
2022/03/17 02:26:03;;;;;;;34.95;21.75;;;;;;;;;;4988353;28;20026;-81
2022/03/17 02:28:31;;;;;;;33.03;21.75;;;;;;;;;;5014952;28;20059;-79
2022/03/17 02:30:58;;;;;;;34.80;21.95;;;;;;;;;;5012623;28;20108;-80
2022/03/17 02:33:24;;;;;;;32.78;22.13;;;;;;;;;;4996588;28;20166;-80
2022/03/17 02:35:51;;;;;;;38.25;23.13;;;;;;;;;;4973058;28;20031;-80
2022/03/17 02:38:17;;;;;;;37.33;22.63;;;;;;;;;;5015416;28;20022;-81
2022/03/17 02:40:45;;;;;;;37.10;21.23;;;;;;;;;;5000025;28;20027;-81
2022/03/17 02:43:14;;;;;;;36.97;22.70;;;;;;;;;;4992346;28;20560;-80
2022/03/17 02:45:40;;;;;;;41.45;22.17;;;;;;;;;;4996217;28;20026;-80
2022/03/17 02:48:06;;;;;;;38.65;22.70;;;;;;;;;;4977888;28;20388;-80
2022/03/17 02:50:34;;;;;;;42.95;24.52;;;;;;;;;;5004174;28;20026;-79
2022/03/17 02:53:05;;;;;;;36.88;23.38;;;;;;;;;;4976196;28;20049;-80
2022/03/17 02:55:34;;;;;;;37.50;23.13;;;;;;;;;;4995494;28;20037;-80
2022/03/17 02:57:59;;;;;;;35.33;22.58;;;;;;;;;;4996145;28;20051;-80
2022/03/17 03:00:25;;;;;;;38.20;22.92;;;;;;;;;;4984340;28;20018;-80
2022/03/17 03:02:50;;;;;;;35.20;22.42;;;;;;;;;;4994585;28;20042;-80
2022/03/17 03:05:15;;;;;;;37.75;22.30;;;;;;;;;;4992566;28;20109;-80
2022/03/17 03:07:41;;;;;;;35.38;22.50;;;;;;;;;;5009182;28;20046;-80
2022/03/17 03:10:07;;;;;;;35.05;22.35;;;;;;;;;;4996533;28;20059;-80
2022/03/17 03:12:33;;;;;;;37.45;22.60;;;;;;;;;;4996559;28;20026;-80
2022/03/17 03:14:59;;;;;;;33.40;21.70;;;;;;;;;;5009834;28;20428;-81
2022/03/17 03:17:25;;;;;;;35.63;22.20;;;;;;;;;;5014944;28;20028;-80
2022/03/17 03:19:51;;;;;;;36.47;22.67;;;;;;;;;;4998387;28;20389;-80
2022/03/17 03:22:17;;;;;;;37.47;22.45;;;;;;;;;;4996168;28;20472;-80
2022/03/17 03:24:43;;;;;;;36.25;21.30;;;;;;;;;;4995196;28;20026;-81
2022/03/17 03:27:09;;;;;;;38.30;22.98;;;;;;;;;;4980035;28;20021;-81
2022/03/17 03:29:34;;;;;;;35.03;23.23;;;;;;;;;;5004367;28;20022;-80
2022/03/17 03:32:03;;;;;;;34.45;22.08;;;;;;;;;;4994285;28;20058;-80
2022/03/17 03:34:30;;;;;;;34.85;21.65;;;;;;;;;;4978249;28;20117;-80
2022/03/17 03:39:39;;;;;;;33.42;21.52;;;;;;;;;;4995632;28;20032;-80
2022/03/17 03:42:07;;;;;;;36.80;22.40;;;;;;;;;;4996232;28;20030;-79
2022/03/17 03:44:32;;;;;;;33.72;21.52;;;;;;;;;;4977941;28;20032;-80
2022/03/17 03:46:58;;;;;;;34.58;20.92;;;;;;;;;;4992187;28;20027;-80
2022/03/17 03:49:23;;;;;;;39.60;21.27;;;;;;;;;;4995114;28;20108;-80
2022/03/17 03:51:49;;;;;;;36.50;22.38;;;;;;;;;;4990880;28;20022;-80
2022/03/17 03:54:17;;;;;;;33.92;22.02;;;;;;;;;;4977100;28;20495;-80
2022/03/17 03:56:50;;;;;;;33.72;21.27;;;;;;;;;;4995299;28;20026;-80
2022/03/17 04:01:44;;;;;;;37.67;21.25;;;;;;;;;;5005680;28;20029;-79
2022/03/17 04:04:15;;;;;;;36.58;22.00;;;;;;;;;;5019243;28;20026;-79
2022/03/17 04:06:42;;;;;;;33.90;20.15;;;;;;;;;;5018060;28;20057;-80
2022/03/17 04:09:07;;;;;;;34.80;22.13;;;;;;;;;;5018412;28;20030;-80
2022/03/17 04:11:32;;;;;;;34.53;22.40;;;;;;;;;;5000310;28;20026;-80
2022/03/17 04:13:58;;;;;;;33.92;21.30;;;;;;;;;;4999071;28;20054;-81
2022/03/17 04:16:23;;;;;;;36.58;21.92;;;;;;;;;;4980931;28;20113;-81
2022/03/17 04:18:48;;;;;;;35.47;22.30;;;;;;;;;;4980838;28;20027;-80
2022/03/17 04:21:14;;;;;;;33.22;21.20;;;;;;;;;;4992798;28;20566;-81
2022/03/17 04:23:39;;;;;;;34.30;22.25;;;;;;;;;;5012716;28;20092;-80
2022/03/17 04:26:04;;;;;;;32.97;20.60;;;;;;;;;;5000577;28;20028;-81
2022/03/17 04:28:30;;;;;;;37.70;22.02;;;;;;;;;;5015108;28;20022;-80
2022/03/17 04:30:55;;;;;;;34.03;21.92;;;;;;;;;;4996631;28;20033;-79
2022/03/17 04:33:20;;;;;;;35.22;22.13;;;;;;;;;;5002178;28;20025;-80
2022/03/17 04:35:46;;;;;;;31.92;21.38;;;;;;;;;;5017108;28;20025;-80
2022/03/17 04:38:11;;;;;;;36.50;22.60;;;;;;;;;;5018129;28;20022;-80
2022/03/17 04:40:36;;;;;;;33.03;20.58;;;;;;;;;;4983729;28;20026;-80
2022/03/17 04:43:02;;;;;;;33.28;22.13;;;;;;;;;;4997572;28;20026;-80
2022/03/17 04:45:27;;;;;;;36.35;21.42;;;;;;;;;;4980468;28;20018;-79
2022/03/17 04:47:52;;;;;;;34.80;21.83;;;;;;;;;;4997603;28;20046;-79
2022/03/17 04:50:18;;;;;;;34.65;20.95;;;;;;;;;;4980862;28;20117;-79
2022/03/17 04:55:27;;;;;;;35.00;20.63;;;;;;;;;;4998883;28;20077;-79
2022/03/17 04:57:52;;;;;;;35.85;22.63;;;;;;;;;;4998006;28;20018;-79
2022/03/17 05:00:18;;;;;;;35.38;20.65;;;;;;;;;;4980351;28;20022;-79
2022/03/17 05:02:43;;;;;;;34.70;21.40;;;;;;;;;;5012209;28;20505;-79
2022/03/17 05:05:09;;;;;;;38.40;21.92;;;;;;;;;;4981147;28;20073;-79
2022/03/17 05:07:34;;;;;;;37.47;21.23;;;;;;;;;;4997626;28;20026;-79
2022/03/17 05:09:59;;;;;;;34.78;21.63;;;;;;;;;;4980067;28;20032;-79
2022/03/17 05:12:25;;;;;;;37.38;22.00;;;;;;;;;;5013070;28;20026;-79
2022/03/17 05:14:50;;;;;;;37.67;22.55;;;;;;;;;;4996919;28;20056;-79
2022/03/17 05:17:16;;;;;;;34.70;21.27;;;;;;;;;;4992331;28;20006;-78
2022/03/17 05:19:41;;;;;;;34.10;21.02;;;;;;;;;;5031065;28;20029;-79
2022/03/17 05:22:06;;;;;;;36.25;21.67;;;;;;;;;;5016774;28;20034;-79
2022/03/17 05:24:33;;;;;;;34.55;21.75;;;;;;;;;;4998565;28;20089;-79
2022/03/17 05:26:59;;;;;;;39.50;22.83;;;;;;;;;;5000730;28;20026;-81
2022/03/17 05:29:26;;;;;;;39.10;21.67;;;;;;;;;;4992155;28;20032;-81
2022/03/17 05:31:52;;;;;;;36.60;22.73;;;;;;;;;;5003714;28;20400;-82
2022/03/17 05:34:17;;;;;;;35.63;21.98;;;;;;;;;;5018507;28;20025;-82
2022/03/17 05:36:42;;;;;;;38.67;22.35;;;;;;;;;;5024679;28;20070;-80
2022/03/17 05:39:08;;;;;;;37.67;22.67;;;;;;;;;;5009534;28;20022;-79
2022/03/17 05:41:33;;;;;;;38.20;22.70;;;;;;;;;;4987435;28;20034;-82
2022/03/17 05:43:59;;;;;;;35.75;21.55;;;;;;;;;;4980222;28;20041;-79
2022/03/17 05:46:25;;;;;;;45.90;23.27;;;;;;;;;;5002275;28;20018;-80
2022/03/17 05:48:52;;;;;;;35.10;21.08;;;;;;;;;;5009809;28;20037;-81
2022/03/17 05:51:18;;;;;;;34.22;21.48;;;;;;;;;;4994175;28;20369;-83
2022/03/17 05:53:43;;;;;;;44.88;22.02;;;;;;;;;;4993739;28;20037;-80
2022/03/17 05:56:08;;;;;;;40.00;24.17;;;;;;;;;;4969402;28;20393;-81
2022/03/17 05:58:34;;;;;;;35.22;21.98;;;;;;;;;;4973994;28;20026;-81
2022/03/17 06:00:59;;;;;;;38.65;23.20;;;;;;;;;;5004556;28;20058;-81
2022/03/17 06:03:25;;;;;;;41.20;23.38;;;;;;;;;;4988884;28;20437;-81
2022/03/17 06:05:50;;;;;;;38.45;22.05;;;;;;;;;;4999736;28;20536;-81
2022/03/17 06:08:15;;;;;;;35.45;22.95;;;;;;;;;;4976664;28;20019;-81
2022/03/17 06:10:41;;;;;;;35.88;22.40;;;;;;;;;;4983207;28;20041;-82
2022/03/17 06:13:07;;;;;;;38.90;23.38;;;;;;;;;;4989416;28;20033;-80
2022/03/17 06:15:36;;;;;;;35.08;22.15;;;;;;;;;;4986357;28;20042;-82
2022/03/17 06:18:04;;;;;;;36.25;21.88;;;;;;;;;;4976975;28;20034;-81
2022/03/17 06:20:31;;;;;;;36.92;21.92;;;;;;;;;;4976519;28;20031;-81
2022/03/17 06:22:59;;;;;;;42.40;23.35;;;;;;;;;;4972661;28;20477;-82
2022/03/17 06:25:27;;;;;;;37.75;22.85;;;;;;;;;;4966658;28;20086;-84
2022/03/17 06:27:53;;;;;;;37.10;22.83;;;;;;;;;;4962679;28;20055;-82
2022/03/17 06:30:24;;;;;;;38.40;22.30;;;;;;;;;;4994524;28;20082;-82
2022/03/17 06:32:50;;;;;;;39.80;21.95;;;;;;;;;;5020148;28;20014;-86
2022/03/17 06:35:21;;;;;;;42.05;22.48;;;;;;;;;;4995406;28;20019;-84
2022/03/17 06:37:49;;;;;;;37.47;23.37;;;;;;;;;;4998074;28;20020;-86
2022/03/17 06:40:16;;;;;;;39.03;23.08;;;;;;;;;;5000955;28;20018;-87
2022/03/17 06:42:42;;;;;;;38.13;21.67;;;;;;;;;;5000895;28;20082;-86
2022/03/17 06:45:07;;;;;;;39.20;22.27;;;;;;;;;;5000791;28;20031;-86
2022/03/17 06:47:33;;;;;;;36.35;22.55;;;;;;;;;;5022450;28;20033;-86
2022/03/17 06:49:58;;;;;;;35.85;21.92;;;;;;;;;;5011937;28;20038;-81
2022/03/17 06:52:24;;;;;;;37.78;22.75;;;;;;;;;;4979018;28;20041;-82
2022/03/17 06:54:50;;;;;;;41.72;23.83;;;;;;;;;;4979430;28;20030;-85
2022/03/17 06:57:17;;;;;;;38.42;23.08;;;;;;;;;;4997202;28;20022;-80
2022/03/17 06:59:42;;;;;;;35.22;22.48;;;;;;;;;;5000203;28;20134;-81
2022/03/17 07:02:08;;;;;;;40.25;24.77;;;;;;;;;;4990938;28;20049;-80
2022/03/17 07:04:33;;;;;;;40.58;23.42;;;;;;;;;;4996266;28;20093;-80
2022/03/17 07:06:59;;;;;;;42.92;22.58;;;;;;;;;;4996295;28;20045;-83
2022/03/17 07:09:24;;;;;;;39.00;23.75;;;;;;;;;;4994459;28;20069;-81
2022/03/17 07:11:50;;;;;;;41.53;23.17;;;;;;;;;;4980575;28;20038;-79
2022/03/17 07:14:15;;;;;;;44.35;25.20;;;;;;;;;;5007921;28;20026;-81
2022/03/17 07:16:41;;;;;;;39.38;22.83;;;;;;;;;;5000536;28;20032;-80
2022/03/17 07:19:07;;;;;;;42.72;23.38;;;;;;;;;;4993866;28;20357;-80
2022/03/17 07:21:33;;;;;;;41.00;24.27;;;;;;;;;;4979391;28;20031;-80
2022/03/17 07:23:59;;;;;;;39.97;23.38;;;;;;;;;;5002882;28;20049;-80
2022/03/17 07:26:24;;;;;;;38.90;24.42;;;;;;;;;;4985197;28;20037;-80
2022/03/17 07:28:49;;;;;;;42.40;23.30;;;;;;;;;;4995088;28;20066;-80
2022/03/17 07:31:15;;;;;;;40.63;23.65;;;;;;;;;;4995509;28;20018;-80
2022/03/17 07:33:42;;;;;;;41.42;23.83;;;;;;;;;;5010387;28;20061;-80
2022/03/17 07:36:07;;;;;;;40.00;22.25;;;;;;;;;;4998951;28;20306;-83
2022/03/17 07:38:33;;;;;;;42.40;24.02;;;;;;;;;;4982752;28;20026;-82
2022/03/17 07:40:58;;;;;;;43.58;24.58;;;;;;;;;;4973963;28;20544;-82
2022/03/17 07:43:25;;;;;;;36.72;23.27;;;;;;;;;;4980937;28;20029;-82
2022/03/17 07:45:53;;;;;;;39.35;23.67;;;;;;;;;;4963444;28;20049;-83
2022/03/17 07:48:19;;;;;;;38.92;23.55;;;;;;;;;;4974928;28;20033;-82
2022/03/17 07:50:45;;;;;;;35.78;22.85;;;;;;;;;;4975217;28;20121;-82
2022/03/17 07:53:10;;;;;;;37.40;22.00;;;;;;;;;;4999558;28;20072;-82
2022/03/17 07:55:36;;;;;;;43.42;21.83;;;;;;;;;;5019313;28;20072;-81
2022/03/17 07:58:02;;;;;;;36.67;23.00;;;;;;;;;;5001630;28;20476;-81
2022/03/17 08:00:27;;;;;;;35.40;22.60;;;;;;;;;;5002349;28;20033;-83
2022/03/17 08:02:54;;;;;;;39.95;23.42;;;;;;;;;;5002142;28;20026;-81
2022/03/17 08:05:19;;;;;;;37.92;23.85;;;;;;;;;;5002311;28;20032;-82
2022/03/17 08:07:52;;;;;;;37.50;21.88;;;;;;;;;;5019391;28;20021;-81
2022/03/17 08:10:18;;;;;;;43.13;23.60;;;;;;;;;;4994631;28;20026;-83
2022/03/17 08:12:43;;;;;;;41.28;23.80;;;;;;;;;;4982861;28;20038;-82
2022/03/17 08:15:10;;;;;;;40.75;23.73;;;;;;;;;;4982763;28;20026;-81
2022/03/17 08:17:36;;;;;;;37.88;22.83;;;;;;;;;;4981812;28;20037;-82
2022/03/17 08:20:03;;;;;;;37.78;22.33;;;;;;;;;;4977932;28;20023;-82
2022/03/17 08:22:29;;;;;;;37.72;23.10;;;;;;;;;;5001602;28;20057;-82
2022/03/17 08:24:54;;;;;;;36.45;22.73;;;;;;;;;;5001587;28;20026;-81
2022/03/17 08:27:19;;;;;;;36.67;21.92;;;;;;;;;;5001816;28;20664;-81
2022/03/17 08:29:48;;;;;;;40.83;23.13;;;;;;;;;;5012466;28;20193;-83
2022/03/17 08:32:14;;;;;;;39.47;23.60;;;;;;;;;;4981989;28;20507;-82
2022/03/17 08:34:40;;;;;;;38.40;23.13;;;;;;;;;;4999255;28;20030;-82
2022/03/17 08:37:05;;;;;;;36.97;22.83;;;;;;;;;;4982606;28;20117;-83
2022/03/17 08:39:31;;;;;;;39.35;22.13;;;;;;;;;;4982345;28;20107;-81
2022/03/17 08:41:56;;;;;;;42.97;22.75;;;;;;;;;;4997830;28;20077;-82
2022/03/17 08:44:22;;;;;;;39.58;23.58;;;;;;;;;;4982775;28;20037;-84
2022/03/17 08:49:32;;;;;;;38.08;23.50;;;;;;;;;;4999873;28;20045;-82
2022/03/17 08:52:02;;;;;;;40.08;23.88;;;;;;;;;;4982029;28;20125;-84
2022/03/17 08:54:29;;;;;;;45.13;24.48;;;;;;;;;;4982012;28;20441;-83
2022/03/17 08:56:59;;;;;;;38.55;23.48;;;;;;;;;;4981884;28;20117;-84
2022/03/17 08:59:30;;;;;;;39.20;24.40;;;;;;;;;;4982077;28;20034;-83
2022/03/17 09:01:56;;;;;;;41.33;24.25;;;;;;;;;;4981562;28;20054;-83
2022/03/17 09:04:22;;;;;;;47.85;24.73;;;;;;;;;;4982043;28;20027;-83
2022/03/17 09:06:48;;;;;;;42.60;24.23;;;;;;;;;;4982195;28;20019;-81
2022/03/17 09:09:13;;;;;;;39.90;23.95;;;;;;;;;;4982050;28;20054;-83
2022/03/17 09:11:39;;;;;;;38.83;23.90;;;;;;;;;;4972718;28;20031;-82
2022/03/17 09:14:07;;;;;;;41.72;24.00;;;;;;;;;;4971074;28;20042;-81
2022/03/17 09:16:33;;;;;;;36.95;23.48;;;;;;;;;;4981559;28;20022;-81
2022/03/17 09:18:58;;;;;;;38.28;23.25;;;;;;;;;;4981327;28;20085;-82
2022/03/17 09:21:25;;;;;;;41.65;24.90;;;;;;;;;;4999465;28;20029;-84
2022/03/17 09:26:37;;;;;;;43.40;24.75;;;;;;;;;;4988185;28;20389;-82
2022/03/17 09:29:03;;;;;;;36.90;22.83;;;;;;;;;;4979770;28;20030;-83
2022/03/17 09:31:29;;;;;;;40.50;23.65;;;;;;;;;;4982873;28;20037;-83
2022/03/17 09:33:55;;;;;;;37.63;24.15;;;;;;;;;;4981747;28;20034;-83
2022/03/17 09:36:22;;;;;;;43.38;24.60;;;;;;;;;;4981369;28;20053;-83
2022/03/17 09:39:45;;;;;;;38.15;24.73;;;;;;;;;;4976722;28;20507;-81
2022/03/17 09:41:36;;;;;;;43.33;24.00;;;;;;;;;;4992511;28;20038;-83
2022/03/17 09:44:03;;;;;;;36.28;22.25;;;;;;;;;;4980978;28;20026;-83
2022/03/17 09:46:30;;;;;;;36.33;23.15;;;;;;;;;;4997681;28;20037;-81
2022/03/17 09:48:56;;;;;;;40.40;23.95;;;;;;;;;;4998549;28;20038;-83
2022/03/17 09:51:24;;;;;;;39.17;23.48;;;;;;;;;;4962895;28;20054;-82
2022/03/17 09:53:54;;;;;;;40.03;24.20;;;;;;;;;;4961626;28;20035;-82
2022/03/17 09:56:24;;;;;;;37.20;22.75;;;;;;;;;;4960844;28;20023;-82
2022/03/17 09:59:01;;;;;;;39.75;22.83;;;;;;;;;;4961127;28;20022;-81
2022/03/17 10:01:27;;;;;;;42.33;25.17;;;;;;;;;;4970217;28;20036;-84
2022/03/17 10:04:00;;;;;;;38.05;23.48;;;;;;;;;;4977242;28;20026;-84
2022/03/17 10:06:28;;;;;;;35.72;22.63;;;;;;;;;;4998335;28;20034;-84
2022/03/17 10:08:55;;;;;;;48.67;24.27;;;;;;;;;;4980662;28;20041;-84
2022/03/17 10:11:31;;;;;;;38.75;23.00;;;;;;;;;;4997448;28;20073;-84
2022/03/17 10:13:59;;;;;;;37.72;21.65;;;;;;;;;;4980837;28;20034;-84
2022/03/17 10:16:26;;;;;;;39.33;22.77;;;;;;;;;;4969439;28;20050;-84
2022/03/17 10:19:01;;;;;;;37.05;23.23;;;;;;;;;;4999282;28;20105;-83
2022/03/17 10:21:28;;;;;;;43.75;24.73;;;;;;;;;;4985045;28;20496;-84
2022/03/17 10:23:59;;;;;;;32.95;21.88;;;;;;;;;;4995671;28;20059;-84
2022/03/17 10:26:35;;;;;;;48.37;22.13;;;;;;;;;;4973092;28;20150;-84
2022/03/17 10:29:08;;;;;;;42.47;24.38;;;;;;;;;;5011487;28;20267;-83
2022/03/17 10:32:11;;;;;;;47.67;24.60;;;;;;;;;;4997703;28;20026;-83
2022/03/17 10:34:45;;;;;;;37.42;23.77;;;;;;;;;;4998425;28;20015;-84
2022/03/17 10:37:20;;;;;;;37.58;23.60;;;;;;;;;;4997628;28;20555;-84
2022/03/17 10:39:53;;;;;;;40.65;24.67;;;;;;;;;;4998573;28;20030;-85
2022/03/17 10:42:24;;;;;;;46.35;24.73;;;;;;;;;;4980234;28;20484;-84
2022/03/17 10:44:58;;;;;;;40.95;25.23;;;;;;;;;;4998480;28;20061;-84
2022/03/17 10:47:24;;;;;;;44.90;24.45;;;;;;;;;;4980382;28;20026;-84
2022/03/17 10:50:16;;;;;;;39.22;23.10;;;;;;;;;;5013831;28;20025;-84
2022/03/17 10:52:56;;;;;;;38.42;23.92;;;;;;;;;;5000818;28;20025;-84
2022/03/17 10:55:28;;;;;;;41.10;24.45;;;;;;;;;;4998557;28;20070;-84
2022/03/17 10:58:16;;;;;;;40.33;23.02;;;;;;;;;;4998556;28;20121;-85
2022/03/17 11:00:49;;;;;;;40.55;22.45;;;;;;;;;;4997947;28;20556;-84
2022/03/17 11:03:16;;;;;;;36.92;23.58;;;;;;;;;;4997963;28;20026;-84
2022/03/17 11:05:42;;;;;;;39.15;24.60;;;;;;;;;;4987172;28;20035;-84
2022/03/17 11:08:09;;;;;;;40.80;23.23;;;;;;;;;;5004652;28;20030;-84
2022/03/17 11:10:38;;;;;;;37.08;23.85;;;;;;;;;;5007442;28;20022;-84
2022/03/17 11:13:09;;;;;;;45.20;23.92;;;;;;;;;;4984914;28;20042;-84
2022/03/17 11:15:35;;;;;;;43.55;23.95;;;;;;;;;;5021648;28;20030;-85
2022/03/17 11:18:04;;;;;;;38.70;23.70;;;;;;;;;;4986398;28;20023;-83
2022/03/17 11:20:30;;;;;;;39.83;25.25;;;;;;;;;;4983067;28;20033;-84
2022/03/17 11:23:06;;;;;;;41.75;23.35;;;;;;;;;;5001903;28;20038;-84
2022/03/17 11:25:34;;;;;;;37.05;21.95;;;;;;;;;;4984365;28;20030;-84
2022/03/17 11:28:01;;;;;;;40.10;23.00;;;;;;;;;;4984747;28;20593;-83
2022/03/17 11:30:45;;;;;;;39.53;23.15;;;;;;;;;;4981922;28;20149;-84
2022/03/17 11:33:32;;;;;;;37.65;22.73;;;;;;;;;;5004565;28;20038;-83
2022/03/17 11:36:00;;;;;;;40.88;22.55;;;;;;;;;;4981723;28;20026;-83
2022/03/17 11:38:29;;;;;;;39.45;22.92;;;;;;;;;;4991205;28;20057;-84
2022/03/17 11:41:15;;;;;;;43.75;23.40;;;;;;;;;;4993634;28;20488;-84
2022/03/17 11:43:45;;;;;;;38.10;22.45;;;;;;;;;;4980110;28;20071;-83
2022/03/17 11:46:18;;;;;;;43.28;23.45;;;;;;;;;;4986268;28;20396;-83
2022/03/17 11:48:50;;;;;;;38.78;23.75;;;;;;;;;;4988794;28;20488;-83
2022/03/17 11:51:15;;;;;;;;;;;;;;;;;;4969874;28;20041;-83
2022/03/17 11:53:47;;;;;;;39.20;23.05;;;;;;;;;;4985762;28;20299;-81
2022/03/17 11:56:31;;;;;;;42.33;23.08;;;;;;;;;;4974116;28;20515;-82
2022/03/17 11:58:56;;;;;;;39.60;23.10;;;;;;;;;;4984617;28;20035;-83
2022/03/17 12:01:29;;;;;;;39.35;23.67;;;;;;;;;;4976929;28;20113;-84
2022/03/17 12:04:19;;;;;;;47.95;24.55;;;;;;;;;;4995538;28;20074;-83
2022/03/17 12:07:10;;;;;;;42.75;24.98;;;;;;;;;;4991519;28;20034;-83
2022/03/17 12:09:36;;;;;;;42.80;24.85;;;;;;;;;;4999434;28;20030;-83
2022/03/17 12:12:15;;;;;;;42.72;26.30;;;;;;;;;;4981263;28;20026;-82
2022/03/17 12:14:48;;;;;;;44.17;23.73;;;;;;;;;;4999591;28;20057;-82
2022/03/17 12:17:13;;;;;;;38.75;23.52;;;;;;;;;;4977664;28;20026;-84
2022/03/17 12:19:51;;;;;;;44.42;25.23;;;;;;;;;;4984606;28;20057;-83
2022/03/17 12:22:33;;;;;;;42.35;24.30;;;;;;;;;;4974246;28;20045;-82
2022/03/17 12:25:01;;;;;;;39.13;24.08;;;;;;;;;;4982331;28;20125;-83
2022/03/17 12:27:35;;;;;;;38.53;22.80;;;;;;;;;;4981827;28;20019;-83
2022/03/17 12:30:03;;;;;;;39.38;24.00;;;;;;;;;;4992464;28;20027;-83
2022/03/17 12:32:40;;;;;;;39.67;24.00;;;;;;;;;;5001668;28;20030;-84
2022/03/17 12:35:11;;;;;;;43.30;24.38;;;;;;;;;;4982048;28;20077;-85
2022/03/17 12:37:38;;;;;;;43.92;24.45;;;;;;;;;;4999290;28;20033;-85
2022/03/17 12:40:11;;;;;;;37.53;23.00;;;;;;;;;;4999585;28;20483;-84
2022/03/17 12:42:41;;;;;;;39.63;23.42;;;;;;;;;;4998937;28;20480;-84
2022/03/17 12:45:08;;;;;;;42.00;24.25;;;;;;;;;;4978454;28;20142;-84
2022/03/17 12:47:35;;;;;;;45.10;24.63;;;;;;;;;;4979923;28;20392;-84
2022/03/17 12:50:06;;;;;;;39.55;23.40;;;;;;;;;;4999336;28;20032;-83
2022/03/17 12:52:32;;;;;;;43.70;23.77;;;;;;;;;;4982386;28;20036;-84
2022/03/17 12:55:00;;;;;;;40.72;24.08;;;;;;;;;;4998441;28;20058;-84
2022/03/17 12:57:27;;;;;;;36.38;22.13;;;;;;;;;;4998808;28;20018;-84
2022/03/17 12:59:52;;;;;;;37.22;23.52;;;;;;;;;;4998578;28;20045;-83
2022/03/17 13:02:19;;;;;;;38.38;22.98;;;;;;;;;;4998033;28;20034;-84
2022/03/17 13:04:53;;;;;;;40.75;23.95;;;;;;;;;;4998884;28;20469;-84
2022/03/17 13:07:19;;;;;;;41.83;22.67;;;;;;;;;;4990837;28;20549;-85
2022/03/17 13:09:46;;;;;;;49.60;24.50;;;;;;;;;;4981660;28;20065;-82
2022/03/17 13:15:11;;;;;;;47.15;25.33;;;;;;;;;;4998118;28;20436;-83
2022/03/17 13:17:44;;;;;;;36.75;22.73;;;;;;;;;;4998003;28;20022;-83
2022/03/17 13:20:22;;;;;;;38.83;23.63;;;;;;;;;;4997670;28;20058;-83
2022/03/17 13:23:00;;;;;;;37.67;22.90;;;;;;;;;;4998259;28;20029;-82
2022/03/17 13:25:27;;;;;;;43.25;24.70;;;;;;;;;;4999504;28;20026;-83
2022/03/17 13:27:57;;;;;;;40.28;22.83;;;;;;;;;;4999683;28;20026;-84
2022/03/17 13:30:23;;;;;;;44.00;25.25;;;;;;;;;;4998795;28;20030;-83
2022/03/17 13:33:01;;;;;;;43.05;24.98;;;;;;;;;;4998823;28;20030;-81
2022/03/17 13:35:30;;;;;;;41.65;23.90;;;;;;;;;;4996469;28;20022;-81
2022/03/17 13:38:10;;;;;;;43.42;24.10;;;;;;;;;;4979970;28;20026;-82
2022/03/17 13:40:51;;;;;;;43.58;24.52;;;;;;;;;;4978816;28;20023;-82
2022/03/17 13:43:24;;;;;;;44.57;24.97;;;;;;;;;;4979321;28;20025;-82
2022/03/17 13:45:50;;;;;;;40.17;23.23;;;;;;;;;;4996779;28;20037;-82
2022/03/17 13:48:17;;;;;;;43.08;23.65;;;;;;;;;;4979086;28;20026;-81
2022/03/17 13:50:56;;;;;;;40.65;25.13;;;;;;;;;;4968991;28;20113;-81
2022/03/17 13:53:29;;;;;;;42.67;25.15;;;;;;;;;;4994941;28;20026;-82
2022/03/17 13:55:59;;;;;;;46.40;25.00;;;;;;;;;;4979844;28;20030;-81
2022/03/17 13:58:43;;;;;;;43.63;24.83;;;;;;;;;;5004764;28;20037;-82
2022/03/17 14:01:21;;;;;;;43.88;25.10;;;;;;;;;;4980215;28;20030;-82
2022/03/17 14:03:48;;;;;;;45.00;25.27;;;;;;;;;;4979067;28;20030;-81
2022/03/17 14:06:21;;;;;;;42.97;24.08;;;;;;;;;;4996674;28;20022;-81
2022/03/17 14:09:12;;;;;;;48.03;26.85;;;;;;;;;;4997157;28;20385;-81
2022/03/17 14:11:38;;;;;;;45.65;26.55;;;;;;;;;;4971662;28;20070;-82
2022/03/17 14:14:08;;;;;;;50.25;28.25;;;;;;;;;;4994487;28;20109;-81
2022/03/17 14:16:36;;;;;;;43.55;25.83;;;;;;;;;;4990859;28;20030;-81
2022/03/17 14:19:03;;;;;;;43.22;24.98;;;;;;;;;;4979415;28;20025;-81
2022/03/17 14:21:30;;;;;;;40.58;24.33;;;;;;;;;;5016207;28;20026;-81
2022/03/17 14:24:12;;;;;;;45.35;24.63;;;;;;;;;;4998623;28;20041;-81
2022/03/17 14:26:45;;;;;;;;;;;;;;;;;;4982196;28;20022;-81
2022/03/17 14:29:16;;;;;;;49.83;24.95;;;;;;;;;;4988974;28;19910;-81
2022/03/17 14:31:44;;;;;;;48.00;25.17;;;;;;;;;;4971825;28;20060;-82
2022/03/17 14:34:11;;;;;;;46.55;25.08;;;;;;;;;;4979139;28;20057;-82
2022/03/17 14:36:38;;;;;;;42.40;25.45;;;;;;;;;;4979839;28;20369;-82
2022/03/17 14:39:06;;;;;;;45.00;25.00;;;;;;;;;;4994151;28;20027;-82
2022/03/17 14:41:32;;;;;;;43.92;24.15;;;;;;;;;;4977043;28;20034;-81
2022/03/17 14:44:03;;;;;;;46.67;25.30;;;;;;;;;;4959551;28;20022;-82
2022/03/17 14:46:29;;;;;;;37.15;23.30;;;;;;;;;;4959174;28;20038;-82